Terminal Aerodrome Forecast
Issued by NWS Wilmington, OH

Current Version | Previous Version | Graphics & Text | Print | Product List | Glossary On
Versions: 1 2 3 4 5 6 7 8 9 10 11 12 13 14 15 16 17 18 19 20 21
000
FTUS41 KILN 250500 RRA
TAFDAY
TAF
KDAY 250547Z 2506/2606 21008KT P6SM OVC025
      TEMPO 2506/2508 OVC035
     FM250800 17005KT P6SM FEW035 BKN150
     FM251600 10007KT 3SM -RA SCT012 OVC050
      TEMPO 2516/2517 -RAPL
     FM251800 09008KT 3SM -RA OVC015
     FM252100 08009KT 1/2SM SN OVC006
     FM260000 04015G23KT 1SM -SN OVC008=

USA.gov is the U.S. government's official web portal to all federal, state and local government web resources and services.